createdAt,value
2022-11-28T00:01:33.212Z,3.87
2022-11-28T00:04:00.095Z,4.13
2022-11-28T00:06:27.261Z,4.10
2022-11-28T00:08:54.846Z,3.67
2022-11-28T00:11:21.300Z,4.40
2022-11-28T00:13:47.705Z,4.80
2022-11-28T00:16:17.153Z,3.93
2022-11-28T00:18:44.265Z,4.10
2022-11-28T00:21:14.391Z,4.30
2022-11-28T00:23:42.576Z,3.90
2022-11-28T00:26:15.839Z,3.93
2022-11-28T00:28:42.654Z,4.83
2022-11-28T00:31:29.302Z,4.33
2022-11-28T00:33:55.985Z,4.20
2022-11-28T00:36:23.602Z,4.00
2022-11-28T00:38:50.875Z,4.60
2022-11-28T00:41:23.258Z,4.37
2022-11-28T00:43:51.007Z,4.20
2022-11-28T00:46:19.224Z,4.47
2022-11-28T00:48:46.057Z,4.33
2022-11-28T00:51:15.390Z,4.30
2022-11-28T00:53:44.394Z,4.43
2022-11-28T00:56:13.944Z,4.57
2022-11-28T00:58:41.059Z,4.37
2022-11-28T01:01:12.740Z,5.13
2022-11-28T01:03:40.690Z,5.00
2022-11-28T01:06:08.525Z,5.13
2022-11-28T01:08:34.926Z,4.93
2022-11-28T01:11:02.042Z,4.77
2022-11-28T01:13:28.769Z,5.00
2022-11-28T01:15:55.341Z,5.00
2022-11-28T01:18:21.786Z,5.43
2022-11-28T01:20:48.193Z,5.03
2022-11-28T01:23:14.593Z,5.80
2022-11-28T01:25:41.046Z,5.00
2022-11-28T01:28:07.435Z,5.17
2022-11-28T01:30:34.175Z,5.27
2022-11-28T01:33:00.685Z,5.13
2022-11-28T01:35:27.610Z,5.07
2022-11-28T01:37:53.992Z,5.57
2022-11-28T01:40:20.529Z,5.83
2022-11-28T01:42:46.945Z,5.23
2022-11-28T01:45:20.632Z,5.53
2022-11-28T01:47:49.715Z,5.53
2022-11-28T01:50:16.736Z,5.30
2022-11-28T01:52:46.879Z,5.37
2022-11-28T01:55:17.240Z,4.87
2022-11-28T01:57:43.764Z,5.13
2022-11-28T02:00:13.918Z,5.10
2022-11-28T02:02:58.623Z,4.70
2022-11-28T02:05:25.440Z,5.53
2022-11-28T02:07:52.675Z,4.77
2022-11-28T02:10:26.998Z,4.67
2022-11-28T02:13:15.250Z,4.83
2022-11-28T02:16:01.514Z,4.00
2022-11-28T02:18:52.358Z,4.20
2022-11-28T02:21:37.004Z,5.07
2022-11-28T02:24:31.281Z,4.60
2022-11-28T02:27:09.837Z,4.33
2022-11-28T02:30:01.771Z,3.80
2022-11-28T02:32:46.141Z,4.27
2022-11-28T02:35:21.691Z,4.27
2022-11-28T02:37:56.536Z,4.57
2022-11-28T02:40:29.355Z,4.00
2022-11-28T02:43:11.660Z,4.30
2022-11-28T02:45:57.919Z,4.50
2022-11-28T02:48:31.931Z,4.10
2022-11-28T02:51:31.431Z,4.83
2022-11-28T02:54:00.119Z,4.70
2022-11-28T02:56:26.759Z,4.73
2022-11-28T02:58:53.459Z,4.53
2022-11-28T03:01:27.858Z,4.33
2022-11-28T03:04:19.296Z,4.10
2022-11-28T03:07:00.804Z,3.97
2022-11-28T03:09:33.166Z,4.17
2022-11-28T03:12:27.826Z,4.57
2022-11-28T03:15:08.206Z,4.07
2022-11-28T03:17:53.062Z,4.27
2022-11-28T03:20:22.671Z,4.23
2022-11-28T03:23:07.928Z,4.17
2022-11-28T03:25:38.766Z,4.07
2022-11-28T03:28:14.662Z,4.20
2022-11-28T03:30:57.277Z,3.77
2022-11-28T03:33:27.813Z,4.20
2022-11-28T03:36:02.776Z,3.47
2022-11-28T03:38:36.185Z,3.70
2022-11-28T03:41:09.461Z,3.93
2022-11-28T03:43:43.090Z,3.80
2022-11-28T03:46:15.965Z,4.03
2022-11-28T03:48:47.359Z,3.60
2022-11-28T03:51:37.016Z,3.90
2022-11-28T03:54:10.542Z,3.83
2022-11-28T03:56:57.275Z,3.83
2022-11-28T03:59:32.475Z,4.20
2022-11-28T04:02:37.534Z,4.27
2022-11-28T04:05:06.652Z,4.23
2022-11-28T04:08:10.129Z,4.10
2022-11-28T04:11:01.185Z,3.97
2022-11-28T04:13:41.603Z,4.00
2022-11-28T04:16:18.915Z,4.07
2022-11-28T04:18:57.783Z,4.30
2022-11-28T04:21:35.717Z,3.63
2022-11-28T04:24:14.436Z,3.70
2022-11-28T04:26:45.788Z,3.70
2022-11-28T04:29:17.856Z,3.77
2022-11-28T04:31:46.219Z,4.03
2022-11-28T04:34:17.707Z,3.37
2022-11-28T04:36:45.910Z,3.50
2022-11-28T04:39:17.874Z,3.70
2022-11-28T04:41:51.507Z,4.07
2022-11-28T04:44:41.610Z,3.60
2022-11-28T04:47:08.430Z,4.10
2022-11-28T04:49:34.866Z,4.00
2022-11-28T04:52:20.218Z,4.20
2022-11-28T04:55:09.920Z,4.47
2022-11-28T04:57:40.504Z,5.93
2022-11-28T05:00:10.442Z,4.33
2022-11-28T05:02:40.971Z,3.50
2022-11-28T05:05:15.534Z,3.57
2022-11-28T05:07:42.209Z,3.47
2022-11-28T05:10:10.135Z,3.53
2022-11-28T05:12:36.643Z,3.60
2022-11-28T05:15:03.885Z,3.57
2022-11-28T05:17:30.266Z,3.80
2022-11-28T05:19:56.875Z,3.27
2022-11-28T05:22:23.373Z,3.47
2022-11-28T05:24:49.706Z,3.67
2022-11-28T05:27:16.269Z,3.33
2022-11-28T05:29:48.118Z,4.13
2022-11-28T05:32:18.234Z,3.70
2022-11-28T05:34:44.692Z,3.73
2022-11-28T05:37:11.318Z,3.30
2022-11-28T05:39:37.786Z,3.70
2022-11-28T05:42:04.396Z,4.00
2022-11-28T05:44:30.781Z,3.67
2022-11-28T05:46:57.171Z,3.50
2022-11-28T05:49:25.438Z,3.73
2022-11-28T05:51:51.772Z,3.27
2022-11-28T05:54:18.165Z,3.60
2022-11-28T05:56:44.661Z,3.27
2022-11-28T05:59:13.171Z,3.97
2022-11-28T06:01:39.738Z,4.27
2022-11-28T06:04:06.241Z,4.50
2022-11-28T06:06:34.927Z,4.13
2022-11-28T06:09:02.022Z,4.00
2022-11-28T06:11:30.467Z,3.90
2022-11-28T06:13:57.173Z,3.70
2022-11-28T06:16:26.935Z,4.23
2022-11-28T06:18:55.263Z,3.50
2022-11-28T06:21:22.899Z,4.30
2022-11-28T06:23:49.413Z,3.73
2022-11-28T06:26:18.668Z,3.90
2022-11-28T06:28:45.743Z,4.30
2022-11-28T06:31:18.640Z,4.23
2022-11-28T06:33:45.681Z,4.40
2022-11-28T06:36:14.130Z,4.47
2022-11-28T06:38:40.913Z,3.80
2022-11-28T06:41:09.963Z,4.13
2022-11-28T06:43:36.447Z,3.90
2022-11-28T06:46:03.170Z,4.00
2022-11-28T06:48:29.893Z,4.70
2022-11-28T06:51:03.288Z,4.88
2022-11-28T06:53:31.534Z,5.10
2022-11-28T06:55:58.547Z,4.67
2022-11-28T06:58:25.001Z,4.33
2022-11-28T07:00:51.862Z,4.90
2022-11-28T07:03:18.292Z,4.63
2022-11-28T07:05:44.714Z,4.70
2022-11-28T07:08:11.258Z,4.77
2022-11-28T07:10:37.663Z,4.67
2022-11-28T07:13:05.704Z,4.20
2022-11-28T07:15:32.319Z,4.30
2022-11-28T07:17:58.699Z,4.27
2022-11-28T07:20:25.047Z,4.30
2022-11-28T07:22:52.306Z,4.73
2022-11-28T07:25:18.757Z,4.67
2022-11-28T07:27:45.181Z,4.80
2022-11-28T07:30:11.756Z,4.37
2022-11-28T07:32:41.599Z,4.00
2022-11-28T07:35:08.912Z,4.53
2022-11-28T07:37:36.319Z,4.20
2022-11-28T07:40:03.902Z,4.20
2022-11-28T07:42:30.349Z,4.00
2022-11-28T07:44:56.843Z,4.30
2022-11-28T07:47:23.261Z,3.83
2022-11-28T07:49:49.757Z,3.50
2022-11-28T07:52:16.159Z,3.73
2022-11-28T07:54:42.645Z,4.53
2022-11-28T07:57:13.200Z,4.40
2022-11-28T07:59:40.754Z,4.03
2022-11-28T08:02:07.480Z,4.00
2022-11-28T08:04:35.849Z,4.07
2022-11-28T08:07:02.244Z,4.63
2022-11-28T08:09:29.379Z,4.80
2022-11-28T08:11:55.809Z,3.70
2022-11-28T08:14:22.187Z,4.03
2022-11-28T08:16:49.579Z,4.37
2022-11-28T08:19:16.058Z,3.90
2022-11-28T08:21:43.522Z,4.50
2022-11-28T08:24:11.442Z,5.13
2022-11-28T08:26:38.211Z,5.17
2022-11-28T08:29:07.677Z,4.40
2022-11-28T08:31:37.168Z,4.20
2022-11-28T08:34:06.986Z,4.80
2022-11-28T08:36:34.727Z,4.40
2022-11-28T08:39:22.993Z,4.63
2022-11-28T08:41:49.805Z,4.50
2022-11-28T08:44:16.239Z,4.17
2022-11-28T08:46:42.719Z,4.77
2022-11-28T08:49:09.227Z,4.33
2022-11-28T08:51:36.653Z,4.07
2022-11-28T08:54:03.371Z,4.20
2022-11-28T08:56:29.795Z,5.60
2022-11-28T08:58:56.280Z,4.97
2022-11-28T09:01:24.994Z,4.83
2022-11-28T09:03:53.737Z,4.30
2022-11-28T09:06:21.202Z,4.70
2022-11-28T09:08:48.875Z,4.87
2022-11-28T09:11:19.455Z,4.90
2022-11-28T09:13:46.128Z,4.70
2022-11-28T09:16:13.532Z,5.43
2022-11-28T09:18:40.584Z,4.93
2022-11-28T09:21:11.862Z,5.57
2022-11-28T09:23:41.237Z,4.30
2022-11-28T09:26:17.561Z,4.63
2022-11-28T09:28:45.357Z,4.27
2022-11-28T09:31:13.228Z,4.67
2022-11-28T09:33:42.798Z,4.83
2022-11-28T09:36:12.035Z,4.77
2022-11-28T09:38:39.132Z,5.20
2022-11-28T09:41:30.492Z,5.33
2022-11-28T09:44:03.253Z,4.57
2022-11-28T09:46:35.924Z,4.40
2022-11-28T09:49:12.526Z,4.87
2022-11-28T09:52:27.051Z,4.27
2022-11-28T09:55:02.039Z,4.63
2022-11-28T09:57:39.031Z,4.87
2022-11-28T10:00:11.199Z,4.53
2022-11-28T10:02:55.953Z,4.57
2022-11-28T10:05:35.381Z,5.40
2022-11-28T10:08:19.246Z,5.07
2022-11-28T10:11:04.630Z,4.90
2022-11-28T10:14:08.146Z,4.87
2022-11-28T10:17:04.620Z,4.30
2022-11-28T10:19:57.748Z,4.83
2022-11-28T10:22:38.911Z,5.67
2022-11-28T10:25:16.474Z,4.40
2022-11-28T10:27:43.091Z,4.63
2022-11-28T10:30:20.328Z,4.30
2022-11-28T10:32:57.874Z,4.77
2022-11-28T10:35:40.668Z,4.83
2022-11-28T10:38:13.047Z,4.80
2022-11-28T10:41:12.896Z,5.90
2022-11-28T10:44:00.493Z,4.80
2022-11-28T10:46:51.362Z,5.33
2022-11-28T10:49:50.590Z,4.67
2022-11-28T10:52:37.780Z,4.30
2022-11-28T10:55:23.787Z,4.60
2022-11-28T10:57:56.302Z,3.93
2022-11-28T11:00:22.937Z,4.33
2022-11-28T11:02:52.910Z,4.83
2022-11-28T11:05:31.473Z,4.10
2022-11-28T11:08:24.547Z,4.23
2022-11-28T11:11:19.991Z,4.23
2022-11-28T11:14:04.110Z,4.27
2022-11-28T11:16:53.253Z,4.33
2022-11-28T11:19:25.586Z,4.67
2022-11-28T11:22:24.122Z,4.67
2022-11-28T11:25:13.413Z,4.50
2022-11-28T11:27:54.489Z,5.63
2022-11-28T11:30:31.370Z,4.90
2022-11-28T11:33:00.791Z,4.50
2022-11-28T11:35:31.773Z,4.30
2022-11-28T11:38:17.466Z,4.73
2022-11-28T11:40:44.407Z,5.30
2022-11-28T11:43:26.783Z,4.53
2022-11-28T11:46:10.365Z,5.13
2022-11-28T11:48:38.005Z,4.90
2022-11-28T11:51:05.157Z,4.63
2022-11-28T11:53:31.686Z,4.73
2022-11-28T11:56:02.240Z,4.97
2022-11-28T11:58:40.285Z,4.63
2022-11-28T12:01:11.534Z,4.63
2022-11-28T12:03:56.788Z,4.43
2022-11-28T12:06:31.309Z,5.03
2022-11-28T12:09:13.226Z,4.60
2022-11-28T12:11:47.045Z,4.47
2022-11-28T12:14:32.785Z,4.97
2022-11-28T12:17:47.823Z,4.87
2022-11-28T12:20:22.117Z,4.80
2022-11-28T12:23:17.039Z,5.93
2022-11-28T12:26:25.026Z,5.23
2022-11-28T12:29:30.530Z,5.30
2022-11-28T12:32:19.466Z,5.03
2022-11-28T12:34:52.521Z,5.73
2022-11-28T12:38:09.442Z,6.00
2022-11-28T12:40:47.551Z,4.93
2022-11-28T12:43:20.182Z,6.20
2022-11-28T12:46:05.526Z,6.03
2022-11-28T12:48:59.911Z,7.10
2022-11-28T12:51:26.336Z,6.50
2022-11-28T12:54:16.034Z,6.67
2022-11-28T12:56:59.096Z,6.30
2022-11-28T12:59:40.182Z,7.10
2022-11-28T13:02:26.063Z,6.77
2022-11-28T13:05:11.484Z,5.80
2022-11-28T13:07:43.261Z,5.13
2022-11-28T13:10:39.336Z,5.87
2022-11-28T13:13:39.972Z,5.57
2022-11-28T13:16:15.921Z,6.20
2022-11-28T13:18:50.652Z,6.30
2022-11-28T13:21:37.156Z,6.13
2022-11-28T13:24:16.517Z,5.37
2022-11-28T13:26:47.592Z,5.50
2022-11-28T13:29:17.633Z,5.53
2022-11-28T13:32:01.903Z,6.20
2022-11-28T13:34:29.967Z,5.10
2022-11-28T13:40:12.315Z,5.73
2022-11-28T13:43:08.151Z,6.23
2022-11-28T13:45:39.319Z,6.33
2022-11-28T13:49:05.987Z,6.27
2022-11-28T13:51:30.535Z,5.30
2022-11-28T13:54:16.949Z,5.30
2022-11-28T13:57:07.722Z,5.60
2022-11-28T13:59:34.881Z,5.97
2022-11-28T14:02:04.876Z,5.50
2022-11-28T14:04:32.750Z,5.90
2022-11-28T14:07:05.470Z,5.60
2022-11-28T14:09:49.587Z,5.07
2022-11-28T14:12:22.037Z,5.90
2022-11-28T14:14:58.081Z,6.13
2022-11-28T14:17:41.484Z,5.60
2022-11-28T14:20:27.114Z,6.17
2022-11-28T14:23:16.377Z,6.07
2022-11-28T14:25:49.011Z,6.40
2022-11-28T14:28:27.123Z,6.40
2022-11-28T14:31:24.610Z,5.50
2022-11-28T14:33:59.563Z,5.60
2022-11-28T14:36:29.732Z,5.10
2022-11-28T14:39:16.596Z,5.47
2022-11-28T14:42:05.329Z,5.30
2022-11-28T14:44:55.992Z,6.00
2022-11-28T14:47:29.405Z,6.03
2022-11-28T14:50:05.785Z,6.17
2022-11-28T14:52:39.627Z,6.00
2022-11-28T14:55:12.773Z,6.13
2022-11-28T14:57:54.133Z,6.00
2022-11-28T15:00:56.088Z,5.83
2022-11-28T15:03:40.634Z,6.23
2022-11-28T15:06:37.421Z,5.50
2022-11-28T15:09:49.269Z,5.13
2022-11-28T15:13:09.630Z,5.83
2022-11-28T15:16:33.172Z,5.32
2022-11-28T15:20:39.882Z,5.70
2022-11-28T15:23:33.705Z,5.03
2022-11-28T15:34:26.323Z,5.50
2022-11-28T15:43:46.482Z,6.10
2022-11-28T15:46:38.390Z,6.43
2022-11-28T15:49:55.859Z,5.90
2022-11-28T15:53:43.406Z,6.33
2022-11-28T16:04:11.332Z,6.10
2022-11-28T16:06:41.399Z,6.20
2022-11-28T16:09:25.943Z,6.77
2022-11-28T16:11:54.262Z,7.70
2022-11-28T16:14:31.553Z,7.10
2022-11-28T16:16:59.337Z,6.27
2022-11-28T16:19:30.718Z,6.97
2022-11-28T16:22:00.966Z,7.13
2022-11-28T16:24:38.692Z,9.00
2022-11-28T16:27:06.513Z,8.63
2022-11-28T16:29:35.652Z,7.80
2022-11-28T16:32:08.610Z,7.67
2022-11-28T16:34:49.386Z,8.90
2022-11-28T16:37:27.629Z,8.30
2022-11-28T16:40:13.434Z,8.53
2022-11-28T16:42:40.616Z,8.37
2022-11-28T16:45:33.976Z,8.40
2022-11-28T16:52:24.994Z,8.03
2022-11-28T16:55:12.987Z,8.73
2022-11-28T16:58:20.900Z,9.13
2022-11-28T17:01:45.333Z,8.67
2022-11-28T17:16:34.926Z,8.90
2022-11-28T17:19:30.039Z,8.83
2022-11-28T17:29:01.009Z,9.53
2022-11-28T17:45:22.833Z,8.73
2022-11-28T17:47:49.772Z,8.17
2022-11-28T17:50:21.697Z,8.03
2022-11-28T17:52:48.416Z,8.03
2022-11-28T17:55:18.484Z,8.40
2022-11-28T17:57:45.213Z,8.40
2022-11-28T18:00:15.258Z,8.87
2022-11-28T18:02:42.206Z,11.97
2022-11-28T18:05:09.494Z,11.77
2022-11-28T18:07:36.117Z,10.30
2022-11-28T18:10:05.668Z,11.00
2022-11-28T18:12:32.516Z,10.97
2022-11-28T18:15:03.448Z,11.57
2022-11-28T18:17:30.209Z,11.03
2022-11-28T18:19:58.026Z,10.20
2022-11-28T18:22:24.973Z,10.33
2022-11-28T18:24:51.607Z,9.93
2022-11-28T18:27:18.243Z,9.27
2022-11-28T18:29:47.210Z,10.57
2022-11-28T18:32:13.738Z,9.67
2022-11-28T18:34:40.468Z,9.57
2022-11-28T18:37:07.324Z,9.27
2022-11-28T18:39:35.346Z,9.63
2022-11-28T18:42:02.057Z,8.60
2022-11-28T18:44:28.644Z,9.27
2022-11-28T18:46:55.222Z,8.80
2022-11-28T18:49:22.286Z,8.20
2022-11-28T18:51:48.932Z,8.00
2022-11-28T18:54:21.307Z,9.00
2022-11-28T18:56:48.995Z,8.10
2022-11-28T18:59:15.650Z,8.37
2022-11-28T19:01:43.635Z,9.20
2022-11-28T19:04:12.756Z,8.97
2022-11-28T19:06:40.870Z,9.23
2022-11-28T19:09:09.917Z,9.40
2022-11-28T19:11:36.700Z,8.33
2022-11-28T19:14:04.251Z,8.67
2022-11-28T19:16:33.333Z,8.93
2022-11-28T19:19:01.127Z,9.20
2022-11-28T19:21:31.817Z,9.03
2022-11-28T19:23:59.480Z,10.27
2022-11-28T19:26:27.514Z,8.80
2022-11-28T19:28:54.923Z,9.87
2022-11-28T19:31:26.904Z,10.37
2022-11-28T19:34:02.448Z,9.57
2022-11-28T19:36:30.483Z,9.90
2022-11-28T19:38:57.979Z,9.60
2022-11-28T19:41:24.909Z,10.77
2022-11-28T19:43:51.809Z,10.67
2022-11-28T19:46:19.302Z,9.87
2022-11-28T19:48:46.518Z,10.07
2022-11-28T19:51:16.265Z,10.70
2022-11-28T19:53:44.077Z,10.67
2022-11-28T19:56:18.249Z,11.60
2022-11-28T19:58:46.026Z,11.10
2022-11-28T20:01:20.693Z,11.60
2022-11-28T20:03:49.225Z,11.40
2022-11-28T20:06:24.004Z,11.87
2022-11-28T20:08:52.067Z,11.93
2022-11-28T20:11:22.353Z,11.37
2022-11-28T20:13:50.324Z,11.10
2022-11-28T20:16:22.853Z,11.87
2022-11-28T20:18:52.372Z,11.77
2022-11-28T20:21:20.358Z,10.67
2022-11-28T20:23:49.545Z,11.57
2022-11-28T20:26:18.436Z,9.83
2022-11-28T20:28:46.018Z,9.47
2022-11-28T20:31:18.478Z,10.00
2022-11-28T20:33:45.250Z,9.30
2022-11-28T20:36:14.093Z,9.83
2022-11-28T20:38:40.920Z,10.13
2022-11-28T20:41:09.988Z,10.80
2022-11-28T20:43:39.215Z,10.07
2022-11-28T20:46:09.060Z,9.87
2022-11-28T20:48:36.369Z,10.43
2022-11-28T20:51:03.142Z,10.87
2022-11-28T20:53:31.526Z,10.37
2022-11-28T20:56:03.121Z,10.67
2022-11-28T20:58:31.195Z,9.63
2022-11-28T21:00:58.197Z,10.90
2022-11-28T21:03:25.758Z,9.57
2022-11-28T21:05:57.825Z,10.47
2022-11-28T21:08:31.430Z,10.33
2022-11-28T21:10:58.009Z,11.17
2022-11-28T21:13:24.670Z,10.60
2022-11-28T21:15:53.384Z,11.43
2022-11-28T21:18:20.265Z,12.03
2022-11-28T21:20:47.293Z,12.13
2022-11-28T21:23:16.414Z,12.17
2022-11-28T21:25:44.212Z,12.13
2022-11-28T21:28:11.861Z,11.20
2022-11-28T21:30:45.019Z,11.63
2022-11-28T21:33:14.705Z,11.60
2022-11-28T21:35:41.463Z,12.30
2022-11-28T21:38:08.340Z,11.70
2022-11-28T21:40:34.918Z,10.93
2022-11-28T21:43:02.017Z,12.50
2022-11-28T21:45:28.512Z,13.50
2022-11-28T21:47:55.111Z,13.20
2022-11-28T21:50:25.266Z,13.60
2022-11-28T21:52:52.001Z,12.47
2022-11-28T21:55:18.890Z,12.70
2022-11-28T21:57:45.814Z,10.77
2022-11-28T22:00:31.321Z,10.17
2022-11-28T22:03:05.853Z,10.90
2022-11-28T22:05:34.578Z,10.33
2022-11-28T22:08:01.520Z,9.87
2022-11-28T22:10:28.465Z,10.87
2022-11-28T22:12:58.280Z,10.93
2022-11-28T22:15:25.129Z,9.97
2022-11-28T22:17:51.670Z,9.83
2022-11-28T22:20:18.523Z,9.83
2022-11-28T22:22:47.589Z,10.27
2022-11-28T22:25:14.184Z,9.90
2022-11-28T22:27:41.117Z,10.37
2022-11-28T22:30:08.494Z,9.47
2022-11-28T22:32:35.098Z,9.73
2022-11-28T22:35:02.732Z,10.27
2022-11-28T22:37:29.364Z,10.23
2022-11-28T22:39:55.972Z,10.10
2022-11-28T22:42:22.386Z,9.93
2022-11-28T22:44:48.794Z,10.33
2022-11-28T22:47:15.387Z,9.90
2022-11-28T22:49:42.010Z,10.07
2022-11-28T22:52:08.646Z,9.33
2022-11-28T22:54:35.192Z,9.80
2022-11-28T22:57:01.703Z,9.60
2022-11-28T22:59:29.484Z,10.43
2022-11-28T23:01:56.227Z,10.03
2022-11-28T23:04:22.898Z,10.47
2022-11-28T23:06:49.460Z,10.40
2022-11-28T23:09:16.067Z,10.17
2022-11-28T23:11:43.055Z,9.33
2022-11-28T23:14:12.868Z,10.30
2022-11-28T23:16:40.473Z,9.33
2022-11-28T23:19:17.636Z,11.13
2022-11-28T23:21:47.333Z,11.07
2022-11-28T23:24:20.328Z,10.27
2022-11-28T23:26:48.165Z,10.53
2022-11-28T23:29:15.643Z,10.47
2022-11-28T23:31:43.593Z,10.73
2022-11-28T23:34:10.730Z,10.43
2022-11-28T23:36:42.833Z,10.10
2022-11-28T23:39:18.470Z,9.53
2022-11-28T23:41:45.743Z,10.63
2022-11-28T23:44:13.902Z,9.23
2022-11-28T23:46:40.985Z,10.07
2022-11-28T23:49:08.277Z,9.87
2022-11-28T23:51:35.822Z,9.37
2022-11-28T23:54:02.406Z,10.27
2022-11-28T23:56:31.208Z,10.10
2022-11-28T23:59:01.027Z,9.90
